Club Med II — FNIR — position and weather

sailwx.info

Track history (hours):
 
Tides and Currents Weather Stations Pressure Air Temp Water Temp Dewpoint Dewpoint Depression Visibility Wind Speed Wind Dir Waves Ship Positions

Club Med II

Operator: V.Ships Leisure S.A.M

Last reported at 2017-May-28 12:00 UTC. Time now 2017-May-28 12:23 UTC.
Position N 44°18' E 009°14'.

Length 187 m; draft 5.2 m.

Type: Ship. MMSI: 227194000.

Date/timePositionNaut miles runAvg speedWind from/ knotsBaromVisibWave heightAir tempDewpointWater temp
2017-May-28 12:00N 44°18' E 009°14'0 0.0
2017-May-28 11:21N 44°18' E 009°14'0 0.0
2017-May-28 11:00N 44°18' E 009°14'0 0.0
2017-May-28 10:30N 44°18' E 009°14'0 0.0
2017-May-28 09:57N 44°18' E 009°14'0 0.0
2017-May-28 09:30N 44°18' E 009°14'0 0.0
2017-May-28 08:57N 44°18' E 009°14'0 0.0
2017-May-28 08:27N 44°18' E 009°14'0 0.0
2017-May-28 08:00N 44°18' E 009°14'0 0.0
2017-May-28 07:27N 44°18' E 009°14'0 0.0
2017-May-28 06:51N 44°18' E 009°14'0 0.0
2017-May-28 06:30N 44°18' E 009°14'0 0.1
2017-May-28 06:00N 44°18' E 009°14'3 5.1
2017-May-28 05:30N 44°16' E 009°16'4 7.1
2017-May-28 05:00N 44°14' E 009°13'4 7.8
2017-May-28 04:30N 44°11' E 009°09'3 7.0
2017-May-28 04:00N 44°09' E 009°06'2 3.9
2017-May-28 03:30N 44°07' E 009°04'1 1.1
2017-May-28 03:00N 44°08' E 009°04'1 1.3
2017-May-28 02:30N 44°08' E 009°04'1 2.4
2017-May-28 02:00N 44°07' E 009°03'2 4.5
2017-May-28 01:30N 44°06' E 009°01'2 4.5
2017-May-28 01:00N 44°04' E 008°59'2 4.8
2017-May-28 00:30N 44°02' E 008°56'3 5.8
2017-May-28 00:00N 44°00' E 008°53'2 4.9
2017-May-27 23:30N 43°59' E 008°51'1 2.7
2017-May-27 23:00N 43°59' E 008°50'1 2.7
2017-May-27 22:30N 43°59' E 008°51'3 5.6
2017-May-27 22:00N 43°57' E 008°49'4 7.5
2017-May-27 21:30N 43°54' E 008°45'4 7.2
2017-May-27 21:00N 43°52' E 008°41'4 7.6
2017-May-27 20:30N 43°50' E 008°37'4 7.6
2017-May-27 20:00N 43°47' E 008°33'4 7.7
2017-May-27 19:30N 43°45' E 008°29'4 7.7
2017-May-27 19:00N 43°43' E 008°25'4 7.6
2017-May-27 18:30N 43°41' E 008°20'4 7.7
2017-May-27 18:00N 43°40' E 008°15'4 7.1
2017-May-27 17:30N 43°41' E 008°10'4 7.4
2017-May-27 17:00N 43°42' E 008°05'4 7.2
2017-May-27 16:30N 43°43' E 008°00'4 7.3
2017-May-27 16:00N 43°45' E 007°56'4 7.8
2017-May-27 15:30N 43°46' E 007°51'3 6.5
2017-May-27 15:00N 43°48' E 007°47'0 0.1
2017-May-27 14:24N 43°49' E 007°47'0 0.0
2017-May-27 13:27N 43°49' E 007°47'0 0.0
2017-May-27 13:00N 43°49' E 007°47'0 0.0
2017-May-27 12:24N 43°49' E 007°47'0 0.0
2017-May-27 11:57N 43°49' E 007°47'0 0.0
2017-May-27 11:30N 43°49' E 007°47'0 0.0
2017-May-27 11:00N 43°49' E 007°47'0 0.0
2017-May-27 10:18N 43°49' E 007°47'0 0.0
2017-May-27 09:33N 43°49' E 007°47'0 0.1
2017-May-27 09:30N 43°49' E 007°47'0 0.0
2017-May-27 08:45N 43°49' E 007°47'0 0.0
2017-May-27 08:30N 43°49' E 007°47'0 0.0
2017-May-27 08:00N 43°49' E 007°47'0 0.0
2017-May-27 07:27N 43°49' E 007°47'0 0.0
2017-May-27 06:57N 43°49' E 007°47'0 0.0
2017-May-27 06:27N 43°49' E 007°47'0 0.1
2017-May-27 06:00N 43°49' E 007°47'1 1.7
2017-May-27 05:31N 43°48' E 007°48'510.5
2017-May-27 05:00N 43°43' E 007°50'510.6
2017-May-27 04:31N 43°38' E 007°53'510.6
2017-May-27 04:00N 43°33' E 007°56'510.6
2017-May-27 03:31N 43°28' E 007°58'510.9
2017-May-27 03:01N 43°23' E 008°00'612.3
2017-May-27 02:31N 43°17' E 008°03'612.1
2017-May-27 02:00N 43°11' E 008°05'612.3
2017-May-27 01:31N 43°05' E 008°06'612.2
2017-May-27 01:00N 42°59' E 008°06'2412.4
2017-May-26 23:03N 42°34' E 008°07'212.3
2017-May-26 22:51N 42°32' E 008°07'412.4
2017-May-26 22:30N 42°28' E 008°07'612.5
2017-May-26 22:01N 42°22' E 008°08'912.8
2017-May-26 21:19N 42°13' E 008°10'34 1.1
2017-May-25 15:37N 42°34' E 008°46'0 0.0
2017-May-25 15:25N 42°34' E 008°46'0 0.0
2017-May-25 14:40N 42°34' E 008°46'0 0.0
2017-May-25 14:10N 42°34' E 008°46'0 0.0
2017-May-25 08:25N 42°34' E 008°46'0 0.0
2017-May-25 07:49N 42°34' E 008°46'0 0.0
2017-May-25 06:28N 42°34' E 008°46'0 0.0
2017-May-25 05:53N 42°34' E 008°46'1 1.7
2017-May-25 05:30N 42°35' E 008°46'3 6.4
2017-May-25 05:01N 42°37' E 008°43'3 6.8
2017-May-25 04:31N 42°39' E 008°40'4 6.8
2017-May-25 03:59N 42°42' E 008°37'4 7.8
2017-May-25 03:30N 42°45' E 008°34'5 9.2
2017-May-25 03:00N 42°48' E 008°29'6 9.1
2017-May-25 02:23N 42°52' E 008°24'5 9.2
2017-May-25 01:48N 42°56' E 008°19'5 9.4
2017-May-25 01:14N 42°60' E 008°14'3 9.2
2017-May-25 00:57N 43°02' E 008°11'4 9.3
2017-May-25 00:30N 43°04' E 008°07'5 9.4
2017-May-25 00:00N 43°08' E 008°02'5 9.2
2017-May-24 23:30N 43°11' E 007°58'5 9.1
2017-May-24 23:00N 43°14' E 007°53'5 9.2
2017-May-24 22:30N 43°17' E 007°48'5 9.3
2017-May-24 22:00N 43°20' E 007°44'4 9.0
2017-May-24 21:31N 43°23' E 007°39'4 8.8
2017-May-24 21:00N 43°26' E 007°34'4 8.8
2017-May-24 20:31N 43°29' E 007°30'4 8.8
2017-May-24 20:00N 43°32' E 007°26'4 8.7
2017-May-24 19:30N 43°35' E 007°22'4 8.7
2017-May-24 19:00N 43°38' E 007°17'3 6.2
2017-May-24 18:29N 43°42' E 007°17'0 0.0
2017-May-24 17:51N 43°42' E 007°17'0 0.0
2017-May-24 17:27N 43°42' E 007°17'0 0.0
2017-May-24 16:51N 43°42' E 007°17'0 0.0
2017-May-24 16:21N 43°42' E 007°17'0 0.0
2017-May-24 15:51N 43°42' E 007°17'0 0.0
2017-May-24 15:09N 43°42' E 007°17'0 0.0
2017-May-24 14:51N 43°42' E 007°17'0 0.0
2017-May-24 14:27N 43°42' E 007°17'0 0.0
2017-May-24 13:21N 43°42' E 007°17'0 0.0
2017-May-24 12:57N 43°42' E 007°17'0 0.0
2017-May-24 12:15N 43°42' E 007°17'0 0.0
2017-May-24 11:57N 43°42' E 007°17'0 0.0
2017-May-24 11:22N 43°42' E 007°17'0 0.0
2017-May-24 10:39N 43°42' E 007°17'0 0.0
2017-May-24 10:21N 43°42' E 007°17'0 0.0
2017-May-24 09:52N 43°42' E 007°17'0 0.0
2017-May-24 09:21N 43°42' E 007°17'0 0.0
2017-May-24 08:57N 43°42' E 007°17'0 0.0
2017-May-24 05:57N 43°42' E 007°17'0 0.0
2017-May-24 05:22N 43°42' E 007°17'0 0.0
2017-May-24 05:00N 43°42' E 007°17'1 1.9
2017-May-24 04:30N 43°41' E 007°17'510.9
2017-May-24 04:00N 43°36' E 007°22'714.6
2017-May-24 03:30N 43°31' E 007°28'714.5
2017-May-24 03:00N 43°26' E 007°35'714.3
2017-May-24 02:30N 43°21' E 007°43'714.1
2017-May-24 02:00N 43°16' E 007°50'713.8
2017-May-24 01:31N 43°12' E 007°57'713.3
2017-May-24 01:01N 43°07' E 008°03'713.0
2017-May-24 00:30N 43°02' E 008°10'713.2
2017-May-23 23:59N 42°57' E 008°16'613.4
2017-May-23 23:30N 42°53' E 008°22'713.4
2017-May-23 23:00N 42°48' E 008°29'713.3
2017-May-23 22:30N 42°43' E 008°35'713.9
2017-May-23 22:00N 42°38' E 008°42'510.8
2017-May-23 21:31N 42°34' E 008°46'0 0.1
2017-May-23 21:00N 42°34' E 008°46'0 0.0
2017-May-23 20:30N 42°34' E 008°46'0 0.1
2017-May-23 20:00N 42°34' E 008°46'0 0.0
2017-May-23 19:30N 42°34' E 008°46'0 0.1
2017-May-23 19:00N 42°34' E 008°46'0 0.0
2017-May-23 18:30N 42°34' E 008°46'0 0.1
2017-May-23 18:00N 42°34' E 008°46'0 0.0
2017-May-23 17:30N 42°34' E 008°46'0 0.0
2017-May-23 17:00N 42°34' E 008°46'0 0.0
2017-May-23 16:29N 42°34' E 008°46'0 0.0
2017-May-23 16:00N 42°34' E 008°46'0 0.1
2017-May-23 15:30N 42°34' E 008°46'0 0.0
2017-May-23 15:00N 42°34' E 008°46'0 0.0
2017-May-23 14:29N 42°34' E 008°46'0 0.0
2017-May-23 13:17N 42°34' E 008°46'0 0.0
2017-May-23 11:07N 42°34' E 008°46'0 0.3
2017-May-23 10:59N 42°34' E 008°46'0 0.0
2017-May-23 10:28N 42°34' E 008°46'0 0.0
2017-May-23 09:54N 42°34' E 008°46'0 0.0
2017-May-23 09:23N 42°34' E 008°46'0 0.0
2017-May-23 09:00N 42°34' E 008°46'0 0.1
2017-May-23 08:28N 42°34' E 008°46'0 0.0
2017-May-23 08:00N 42°34' E 008°46'0 0.0
2017-May-23 07:30N 42°34' E 008°46'0 0.0
2017-May-23 06:57N 42°34' E 008°46'0 0.0
2017-May-23 06:29N 42°34' E 008°46'0 0.0
2017-May-23 05:59N 42°34' E 008°46'1 1.2
2017-May-23 05:30N 42°35' E 008°46'3 6.4
2017-May-23 05:00N 42°37' E 008°44'3 6.0
2017-May-23 04:29N 42°39' E 008°41'3 5.4
2017-May-23 03:56N 42°42' E 008°38'3 5.5
2017-May-23 03:23N 42°44' E 008°35'2 6.0
2017-May-23 03:00N 42°45' E 008°33'3 6.3
2017-May-23 02:28N 42°48' E 008°29'3 6.1
2017-May-23 02:00N 42°50' E 008°27'3 6.3
2017-May-23 01:30N 42°52' E 008°23'3 6.6
2017-May-23 01:00N 42°54' E 008°20'3 5.9
2017-May-23 00:30N 42°56' E 008°17'3 5.8
2017-May-23 00:00N 42°58' E 008°15'3 6.1
2017-May-22 23:28N 43°00' E 008°11'3 6.0
2017-May-22 23:00N 43°02' E 008°08'3 6.0
2017-May-22 22:30N 43°04' E 008°06'3 6.1
2017-May-22 22:00N 43°07' E 008°03'4 7.1
2017-May-22 21:30N 43°09' E 007°59'3 5.4
2017-May-22 21:00N 43°11' E 007°57'3 5.6
2017-May-22 20:30N 43°13' E 007°54'3 5.8
2017-May-22 20:00N 43°15' E 007°51'3 5.7
2017-May-22 19:30N 43°17' E 007°48'3 5.4
2017-May-22 19:00N 43°19' E 007°46'2 5.0
2017-May-22 18:30N 43°21' E 007°43'3 6.3
2017-May-22 18:00N 43°23' E 007°40'3 5.9
2017-May-22 17:30N 43°25' E 007°37'3 6.2
2017-May-22 17:00N 43°27' E 007°34'3 6.3
2017-May-22 16:30N 43°29' E 007°31'3 6.3
2017-May-22 16:00N 43°31' E 007°28'3 6.3
2017-May-22 15:30N 43°34' E 007°25'3 6.1
2017-May-22 15:00N 43°36' E 007°22'6 6.2
2017-May-22 14:00N 43°41' E 007°17'1 0.6
2017-May-22 13:13N 43°42' E 007°17'0 0.0
2017-May-22 12:52N 43°42' E 007°17'0 0.0
2017-May-22 12:01N 43°42' E 007°17'0 0.0
2017-May-22 11:19N 43°42' E 007°17'0 0.0
2017-May-22 10:52N 43°42' E 007°17'0 0.0
2017-May-22 10:28N 43°42' E 007°17'0 0.0
2017-May-22 09:55N 43°42' E 007°17'0 0.0
2017-May-22 09:13N 43°42' E 007°17'0 0.0
2017-May-22 08:52N 43°42' E 007°17'0 0.0
2017-May-22 08:22N 43°42' E 007°17'0 0.0
2017-May-22 07:58N 43°42' E 007°17'0 0.0
2017-May-22 07:16N 43°42' E 007°17'0 0.0
2017-May-22 06:16N 43°42' E 007°17'0 0.0
2017-May-22 05:58N 43°42' E 007°17'0 0.0
2017-May-22 05:25N 43°42' E 007°17'0 0.0
2017-May-22 04:58N 43°42' E 007°17'0 0.0
2017-May-22 04:25N 43°42' E 007°17'0 0.0
2017-May-22 04:00N 43°42' E 007°17'1 2.3
2017-May-22 03:30N 43°40' E 007°17'4 8.7
2017-May-22 03:00N 43°37' E 007°20'612.8
2017-May-22 02:30N 43°31' E 007°24'612.7
2017-May-22 02:00N 43°25' E 007°28'714.3
2017-May-22 01:30N 43°19' E 007°32'714.8
2017-May-22 01:00N 43°12' E 007°37'714.8
2017-May-22 00:30N 43°05' E 007°41'815.0
2017-May-22 00:00N 42°58' E 007°44'815.0
2017-May-21 23:28N 42°51' E 007°48'715.0
2017-May-21 23:00N 42°45' E 007°52'815.2
2017-May-21 22:28N 42°37' E 007°58'915.1
2017-May-21 21:53N 42°29' E 008°03'615.2
2017-May-21 21:28N 42°24' E 008°06'715.3
2017-May-21 21:00N 42°17' E 008°10'815.3
2017-May-21 20:29N 42°10' E 008°15'815.2
2017-May-21 19:56N 42°03' E 008°20'715.3
2017-May-21 19:30N 41°57' E 008°24'815.0
2017-May-21 18:59N 41°50' E 008°29'713.2
2017-May-21 18:29N 41°44' E 008°34'613.3
2017-May-21 18:00N 41°38' E 008°35'714.2
2017-May-21 17:30N 41°31' E 008°37'714.0
2017-May-21 16:59N 41°27' E 008°45'814.7
2017-May-21 16:29N 41°25' E 008°54'714.7
2017-May-21 16:00N 41°23' E 009°03'4 8.6
2017-May-21 15:30N 41°23' E 009°09'0 0.1
2017-May-21 14:50N 41°23' E 009°09'0 0.0
2017-May-21 14:11N 41°23' E 009°09'0 0.0
2017-May-21 12:41N 41°23' E 009°09'0 0.1
2017-May-21 12:26N 41°23' E 009°09'0 0.0
2017-May-21 09:50N 41°23' E 009°09'0 0.0
2017-May-21 09:20N 41°23' E 009°09'0 0.0
2017-May-21 08:59N 41°23' E 009°09'0 0.0
2017-May-21 08:29N 41°23' E 009°09'0 0.0
2017-May-21 07:26N 41°23' E 009°09'0 0.0
2017-May-21 06:53N 41°23' E 009°09'0 0.0
2017-May-21 06:29N 41°23' E 009°09'0 0.1
2017-May-21 05:58N 41°23' E 009°09'25 8.6
2017-May-21 03:02N 41°39' E 009°35'013.3
2017-May-21 03:00N 41°40' E 009°35'713.4
2017-May-21 02:29N 41°46' E 009°38'2213.3
2017-May-21 00:51N 42°08' E 009°43'2913.3
2017-May-20 22:41N 42°36' E 009°44'313.6
2017-May-20 22:30N 42°39' E 009°43'713.5
2017-May-20 22:01N 42°45' E 009°40'713.6
2017-May-20 21:31N 42°52' E 009°38'713.6
2017-May-20 21:00N 42°58' E 009°36'713.4
2017-May-20 20:31N 43°05' E 009°33'612.8
2017-May-20 20:00N 43°07' E 009°25'26 1.4
2017-May-20 02:15N 43°11' E 008°50'2 9.3
2017-May-20 02:00N 43°13' E 008°51'4 8.8
2017-May-20 01:30N 43°17' E 008°53'4 8.8
2017-May-20 01:00N 43°21' E 008°55'4 8.4
2017-May-20 00:30N 43°25' E 008°56'4 8.3
2017-May-20 00:00N 43°29' E 008°58'4 8.4
2017-May-19 23:30N 43°33' E 008°59'4 8.3
2017-May-19 23:00N 43°37' E 008°60'4 8.6
2017-May-19 22:30N 43°42' E 008°59'4 8.8
2017-May-19 22:00N 43°46' E 008°58'5 9.1
2017-May-19 21:30N 43°51' E 008°58'5 9.3
2017-May-19 21:00N 43°55' E 008°58'5 9.5
2017-May-19 20:30N 44°00' E 008°58'4 8.7
2017-May-19 20:00N 44°04' E 009°01'5 9.8
2017-May-19 19:30N 44°08' E 009°05'5 9.8
2017-May-19 19:00N 44°11' E 009°10'5 9.7
2017-May-19 18:30N 44°15' E 009°14'3 6.8
2017-May-19 18:00N 44°18' E 009°14'0 0.2
2017-May-19 17:25N 44°18' E 009°14'0 0.0
2017-May-19 16:58N 44°18' E 009°14'0 0.0
2017-May-19 16:25N 44°18' E 009°14'0 0.1
2017-May-19 15:58N 44°18' E 009°14'0 0.0
2017-May-19 15:28N 44°18' E 009°14'0 0.0
2017-May-19 14:52N 44°18' E 009°14'0 0.0
2017-May-19 13:55N 44°18' E 009°14'0 0.1
2017-May-19 13:22N 44°18' E 009°14'0 0.1
2017-May-19 12:49N 44°18' E 009°14'0 0.1
2017-May-19 12:28N 44°18' E 009°14'0 0.1
2017-May-19 11:58N 44°18' E 009°14'0 0.1
2017-May-19 11:28N 44°18' E 009°14'0 0.0
2017-May-19 10:49N 44°18' E 009°14'0 0.2
2017-May-19 10:28N 44°18' E 009°14'0 0.0
2017-May-19 09:58N 44°18' E 009°14'0 0.1
2017-May-19 09:28N 44°18' E 009°14'0 0.1
2017-May-19 08:43N 44°18' E 009°14'0 0.1
2017-May-19 08:28N 44°18' E 009°14'0 0.0
2017-May-19 07:58N 44°18' E 009°14'0 0.1
2017-May-19 07:22N 44°18' E 009°14'0 0.1
2017-May-19 06:49N 44°18' E 009°14'0 0.0
2017-May-19 06:28N 44°18' E 009°14'0 0.0
2017-May-19 06:00N 44°18' E 009°14'1 2.4
2017-May-19 05:30N 44°18' E 009°15'3 6.1
2017-May-19 05:00N 44°15' E 009°15'5 9.1
2017-May-19 04:30N 44°12' E 009°10'5 9.2
2017-May-19 04:00N 44°08' E 009°05'5 9.2
2017-May-19 03:30N 44°05' E 009°00'4 8.9
2017-May-19 03:00N 44°02' E 008°56'4 7.8
2017-May-19 02:30N 43°60' E 008°51'4 7.8
2017-May-19 02:00N 43°58' E 008°47'4 9.0
2017-May-19 01:30N 43°55' E 008°42'5 9.2
2017-May-19 01:00N 43°52' E 008°37'5 9.2
2017-May-19 00:30N 43°49' E 008°32'5 9.2
2017-May-19 00:00N 43°47' E 008°27'4 8.9
2017-May-18 23:30N 43°44' E 008°22'4 8.7
2017-May-18 23:00N 43°41' E 008°17'5 9.9
2017-May-18 22:29N 43°38' E 008°12'5 9.6
2017-May-18 22:00N 43°35' E 008°07'5 9.7
2017-May-18 21:30N 43°36' E 007°60'5 9.7
2017-May-18 21:00N 43°36' E 007°53'5 9.4
2017-May-18 20:30N 43°37' E 007°47'5 9.6
2017-May-18 20:00N 43°37' E 007°40'5 9.7
2017-May-18 19:30N 43°38' E 007°34'510.3
2017-May-18 19:00N 43°39' E 007°27'510.2
2017-May-18 18:30N 43°40' E 007°20'3 5.3
2017-May-18 18:00N 43°42' E 007°17'0 0.1
2017-May-18 17:30N 43°42' E 007°17'0 0.0
2017-May-18 17:00N 43°42' E 007°17'0 0.0
2017-May-18 16:30N 43°42' E 007°17'0 0.0
2017-May-18 16:00N 43°42' E 007°17'0 0.0
2017-May-18 15:30N 43°42' E 007°17'0 0.0
2017-May-18 15:00N 43°42' E 007°17'0 0.0
2017-May-18 14:30N 43°42' E 007°17'0 0.0
2017-May-18 13:30N 43°42' E 007°17'0 0.0
2017-May-18 13:00N 43°42' E 007°17'0 0.0
2017-May-18 12:30N 43°42' E 007°17'0 0.0
2017-May-18 12:00N 43°42' E 007°17'  
Track history (hours):
 
Tides and Currents Weather Stations Pressure Air Temp Water Temp Dewpoint Dewpoint Depression Visibility Wind Speed Wind Dir Waves Ship Positions

Club Med II

Operator: V.Ships Leisure S.A.M

Last reported at 2017-May-28 12:00 UTC. Time now 2017-May-28 12:23 UTC.
Position N 44°18' E 009°14'.

Length 187 m; draft 5.2 m.

Type: Ship. MMSI: 227194000.

Date/timePositionNaut miles runAvg speedWind from/ knotsBaromVisibWave heightAir tempDewpointWater temp
2017-May-28 12:00N 44°18' E 009°14'0 0.0
2017-May-28 11:21N 44°18' E 009°14'0 0.0
2017-May-28 11:00N 44°18' E 009°14'0 0.0
2017-May-28 10:30N 44°18' E 009°14'0 0.0
2017-May-28 09:57N 44°18' E 009°14'0 0.0
2017-May-28 09:30N 44°18' E 009°14'0 0.0
2017-May-28 08:57N 44°18' E 009°14'0 0.0
2017-May-28 08:27N 44°18' E 009°14'0 0.0
2017-May-28 08:00N 44°18' E 009°14'0 0.0
2017-May-28 07:27N 44°18' E 009°14'0 0.0
2017-May-28 06:51N 44°18' E 009°14'0 0.0
2017-May-28 06:30N 44°18' E 009°14'0 0.1
2017-May-28 06:00N 44°18' E 009°14'3 5.1
2017-May-28 05:30N 44°16' E 009°16'4 7.1
2017-May-28 05:00N 44°14' E 009°13'4 7.8
2017-May-28 04:30N 44°11' E 009°09'3 7.0
2017-May-28 04:00N 44°09' E 009°06'2 3.9
2017-May-28 03:30N 44°07' E 009°04'1 1.1
2017-May-28 03:00N 44°08' E 009°04'1 1.3
2017-May-28 02:30N 44°08' E 009°04'1 2.4
2017-May-28 02:00N 44°07' E 009°03'2 4.5
2017-May-28 01:30N 44°06' E 009°01'2 4.5
2017-May-28 01:00N 44°04' E 008°59'2 4.8
2017-May-28 00:30N 44°02' E 008°56'3 5.8
2017-May-28 00:00N 44°00' E 008°53'2 4.9
2017-May-27 23:30N 43°59' E 008°51'1 2.7
2017-May-27 23:00N 43°59' E 008°50'1 2.7
2017-May-27 22:30N 43°59' E 008°51'3 5.6
2017-May-27 22:00N 43°57' E 008°49'4 7.5
2017-May-27 21:30N 43°54' E 008°45'4 7.2
2017-May-27 21:00N 43°52' E 008°41'4 7.6
2017-May-27 20:30N 43°50' E 008°37'4 7.6
2017-May-27 20:00N 43°47' E 008°33'4 7.7
2017-May-27 19:30N 43°45' E 008°29'4 7.7
2017-May-27 19:00N 43°43' E 008°25'4 7.6
2017-May-27 18:30N 43°41' E 008°20'4 7.7
2017-May-27 18:00N 43°40' E 008°15'4 7.1
2017-May-27 17:30N 43°41' E 008°10'4 7.4
2017-May-27 17:00N 43°42' E 008°05'4 7.2
2017-May-27 16:30N 43°43' E 008°00'4 7.3
2017-May-27 16:00N 43°45' E 007°56'4 7.8
2017-May-27 15:30N 43°46' E 007°51'3 6.5
2017-May-27 15:00N 43°48' E 007°47'0 0.1
2017-May-27 14:24N 43°49' E 007°47'0 0.0
2017-May-27 13:27N 43°49' E 007°47'0 0.0
2017-May-27 13:00N 43°49' E 007°47'0 0.0
2017-May-27 12:24N 43°49' E 007°47'0 0.0
2017-May-27 11:57N 43°49' E 007°47'0 0.0
2017-May-27 11:30N 43°49' E 007°47'0 0.0
2017-May-27 11:00N 43°49' E 007°47'0 0.0
2017-May-27 10:18N 43°49' E 007°47'0 0.0
2017-May-27 09:33N 43°49' E 007°47'0 0.1
2017-May-27 09:30N 43°49' E 007°47'0 0.0
2017-May-27 08:45N 43°49' E 007°47'0 0.0
2017-May-27 08:30N 43°49' E 007°47'0 0.0
2017-May-27 08:00N 43°49' E 007°47'0 0.0
2017-May-27 07:27N 43°49' E 007°47'0 0.0
2017-May-27 06:57N 43°49' E 007°47'0 0.0
2017-May-27 06:27N 43°49' E 007°47'0 0.1
2017-May-27 06:00N 43°49' E 007°47'1 1.7
2017-May-27 05:31N 43°48' E 007°48'510.5
2017-May-27 05:00N 43°43' E 007°50'510.6
2017-May-27 04:31N 43°38' E 007°53'510.6
2017-May-27 04:00N 43°33' E 007°56'510.6
2017-May-27 03:31N 43°28' E 007°58'510.9
2017-May-27 03:01N 43°23' E 008°00'612.3
2017-May-27 02:31N 43°17' E 008°03'612.1
2017-May-27 02:00N 43°11' E 008°05'612.3
2017-May-27 01:31N 43°05' E 008°06'612.2
2017-May-27 01:00N 42°59' E 008°06'2412.4
2017-May-26 23:03N 42°34' E 008°07'212.3
2017-May-26 22:51N 42°32' E 008°07'412.4
2017-May-26 22:30N 42°28' E 008°07'612.5
2017-May-26 22:01N 42°22' E 008°08'912.8
2017-May-26 21:19N 42°13' E 008°10'34 1.1
2017-May-25 15:37N 42°34' E 008°46'0 0.0
2017-May-25 15:25N 42°34' E 008°46'0 0.0
2017-May-25 14:40N 42°34' E 008°46'0 0.0
2017-May-25 14:10N 42°34' E 008°46'0 0.0
2017-May-25 08:25N 42°34' E 008°46'0 0.0
2017-May-25 07:49N 42°34' E 008°46'0 0.0
2017-May-25 06:28N 42°34' E 008°46'0 0.0
2017-May-25 05:53N 42°34' E 008°46'1 1.7
2017-May-25 05:30N 42°35' E 008°46'3 6.4
2017-May-25 05:01N 42°37' E 008°43'3 6.8
2017-May-25 04:31N 42°39' E 008°40'4 6.8
2017-May-25 03:59N 42°42' E 008°37'4 7.8
2017-May-25 03:30N 42°45' E 008°34'5 9.2
2017-May-25 03:00N 42°48' E 008°29'6 9.1
2017-May-25 02:23N 42°52' E 008°24'5 9.2
2017-May-25 01:48N 42°56' E 008°19'5 9.4
2017-May-25 01:14N 42°60' E 008°14'3 9.2
2017-May-25 00:57N 43°02' E 008°11'4 9.3
2017-May-25 00:30N 43°04' E 008°07'5 9.4
2017-May-25 00:00N 43°08' E 008°02'5 9.2
2017-May-24 23:30N 43°11' E 007°58'5 9.1
2017-May-24 23:00N 43°14' E 007°53'5 9.2
2017-May-24 22:30N 43°17' E 007°48'5 9.3
2017-May-24 22:00N 43°20' E 007°44'4 9.0
2017-May-24 21:31N 43°23' E 007°39'4 8.8
2017-May-24 21:00N 43°26' E 007°34'4 8.8
2017-May-24 20:31N 43°29' E 007°30'4 8.8
2017-May-24 20:00N 43°32' E 007°26'4 8.7
2017-May-24 19:30N 43°35' E 007°22'4 8.7
2017-May-24 19:00N 43°38' E 007°17'3 6.2
2017-May-24 18:29N 43°42' E 007°17'0 0.0
2017-May-24 17:51N 43°42' E 007°17'0 0.0
2017-May-24 17:27N 43°42' E 007°17'0 0.0
2017-May-24 16:51N 43°42' E 007°17'0 0.0
2017-May-24 16:21N 43°42' E 007°17'0 0.0
2017-May-24 15:51N 43°42' E 007°17'0 0.0
2017-May-24 15:09N 43°42' E 007°17'0 0.0
2017-May-24 14:51N 43°42' E 007°17'0 0.0
2017-May-24 14:27N 43°42' E 007°17'0 0.0
2017-May-24 13:21N 43°42' E 007°17'0 0.0
2017-May-24 12:57N 43°42' E 007°17'0 0.0
2017-May-24 12:15N 43°42' E 007°17'0 0.0
2017-May-24 11:57N 43°42' E 007°17'0 0.0
2017-May-24 11:22N 43°42' E 007°17'0 0.0
2017-May-24 10:39N 43°42' E 007°17'0 0.0
2017-May-24 10:21N 43°42' E 007°17'0 0.0
2017-May-24 09:52N 43°42' E 007°17'0 0.0
2017-May-24 09:21N 43°42' E 007°17'0 0.0
2017-May-24 08:57N 43°42' E 007°17'0 0.0
2017-May-24 05:57N 43°42' E 007°17'0 0.0
2017-May-24 05:22N 43°42' E 007°17'0 0.0
2017-May-24 05:00N 43°42' E 007°17'1 1.9
2017-May-24 04:30N 43°41' E 007°17'510.9
2017-May-24 04:00N 43°36' E 007°22'714.6
2017-May-24 03:30N 43°31' E 007°28'714.5
2017-May-24 03:00N 43°26' E 007°35'714.3
2017-May-24 02:30N 43°21' E 007°43'714.1
2017-May-24 02:00N 43°16' E 007°50'713.8
2017-May-24 01:31N 43°12' E 007°57'713.3
2017-May-24 01:01N 43°07' E 008°03'713.0
2017-May-24 00:30N 43°02' E 008°10'713.2
2017-May-23 23:59N 42°57' E 008°16'613.4
2017-May-23 23:30N 42°53' E 008°22'713.4
2017-May-23 23:00N 42°48' E 008°29'713.3
2017-May-23 22:30N 42°43' E 008°35'713.9
2017-May-23 22:00N 42°38' E 008°42'510.8
2017-May-23 21:31N 42°34' E 008°46'0 0.1
2017-May-23 21:00N 42°34' E 008°46'0 0.0
2017-May-23 20:30N 42°34' E 008°46'0 0.1
2017-May-23 20:00N 42°34' E 008°46'0 0.0
2017-May-23 19:30N 42°34' E 008°46'0 0.1
2017-May-23 19:00N 42°34' E 008°46'0 0.0
2017-May-23 18:30N 42°34' E 008°46'0 0.1
2017-May-23 18:00N 42°34' E 008°46'0 0.0
2017-May-23 17:30N 42°34' E 008°46'0 0.0
2017-May-23 17:00N 42°34' E 008°46'0 0.0
2017-May-23 16:29N 42°34' E 008°46'0 0.0
2017-May-23 16:00N 42°34' E 008°46'0 0.1
2017-May-23 15:30N 42°34' E 008°46'0 0.0
2017-May-23 15:00N 42°34' E 008°46'0 0.0
2017-May-23 14:29N 42°34' E 008°46'0 0.0
2017-May-23 13:17N 42°34' E 008°46'0 0.0
2017-May-23 11:07N 42°34' E 008°46'0 0.3
2017-May-23 10:59N 42°34' E 008°46'0 0.0
2017-May-23 10:28N 42°34' E 008°46'0 0.0
2017-May-23 09:54N 42°34' E 008°46'0 0.0
2017-May-23 09:23N 42°34' E 008°46'0 0.0
2017-May-23 09:00N 42°34' E 008°46'0 0.1
2017-May-23 08:28N 42°34' E 008°46'0 0.0
2017-May-23 08:00N 42°34' E 008°46'0 0.0
2017-May-23 07:30N 42°34' E 008°46'0 0.0
2017-May-23 06:57N 42°34' E 008°46'0 0.0
2017-May-23 06:29N 42°34' E 008°46'0 0.0
2017-May-23 05:59N 42°34' E 008°46'1 1.2
2017-May-23 05:30N 42°35' E 008°46'3 6.4
2017-May-23 05:00N 42°37' E 008°44'3 6.0
2017-May-23 04:29N 42°39' E 008°41'3 5.4
2017-May-23 03:56N 42°42' E 008°38'3 5.5
2017-May-23 03:23N 42°44' E 008°35'2 6.0
2017-May-23 03:00N 42°45' E 008°33'3 6.3
2017-May-23 02:28N 42°48' E 008°29'3 6.1
2017-May-23 02:00N 42°50' E 008°27'3 6.3
2017-May-23 01:30N 42°52' E 008°23'3 6.6
2017-May-23 01:00N 42°54' E 008°20'3 5.9
2017-May-23 00:30N 42°56' E 008°17'3 5.8
2017-May-23 00:00N 42°58' E 008°15'3 6.1
2017-May-22 23:28N 43°00' E 008°11'3 6.0
2017-May-22 23:00N 43°02' E 008°08'3 6.0
2017-May-22 22:30N 43°04' E 008°06'3 6.1
2017-May-22 22:00N 43°07' E 008°03'4 7.1
2017-May-22 21:30N 43°09' E 007°59'3 5.4
2017-May-22 21:00N 43°11' E 007°57'3 5.6
2017-May-22 20:30N 43°13' E 007°54'3 5.8
2017-May-22 20:00N 43°15' E 007°51'3 5.7
2017-May-22 19:30N 43°17' E 007°48'3 5.4
2017-May-22 19:00N 43°19' E 007°46'2 5.0
2017-May-22 18:30N 43°21' E 007°43'3 6.3
2017-May-22 18:00N 43°23' E 007°40'3 5.9
2017-May-22 17:30N 43°25' E 007°37'3 6.2
2017-May-22 17:00N 43°27' E 007°34'3 6.3
2017-May-22 16:30N 43°29' E 007°31'3 6.3
2017-May-22 16:00N 43°31' E 007°28'3 6.3
2017-May-22 15:30N 43°34' E 007°25'3 6.1
2017-May-22 15:00N 43°36' E 007°22'6 6.2
2017-May-22 14:00N 43°41' E 007°17'1 0.6
2017-May-22 13:13N 43°42' E 007°17'0 0.0
2017-May-22 12:52N 43°42' E 007°17'0 0.0
2017-May-22 12:01N 43°42' E 007°17'0 0.0
2017-May-22 11:19N 43°42' E 007°17'0 0.0
2017-May-22 10:52N 43°42' E 007°17'0 0.0
2017-May-22 10:28N 43°42' E 007°17'0 0.0
2017-May-22 09:55N 43°42' E 007°17'0 0.0
2017-May-22 09:13N 43°42' E 007°17'0 0.0
2017-May-22 08:52N 43°42' E 007°17'0 0.0
2017-May-22 08:22N 43°42' E 007°17'0 0.0
2017-May-22 07:58N 43°42' E 007°17'0 0.0
2017-May-22 07:16N 43°42' E 007°17'0 0.0
2017-May-22 06:16N 43°42' E 007°17'0 0.0
2017-May-22 05:58N 43°42' E 007°17'0 0.0
2017-May-22 05:25N 43°42' E 007°17'0 0.0
2017-May-22 04:58N 43°42' E 007°17'0 0.0
2017-May-22 04:25N 43°42' E 007°17'0 0.0
2017-May-22 04:00N 43°42' E 007°17'1 2.3
2017-May-22 03:30N 43°40' E 007°17'4 8.7
2017-May-22 03:00N 43°37' E 007°20'612.8
2017-May-22 02:30N 43°31' E 007°24'612.7
2017-May-22 02:00N 43°25' E 007°28'714.3
2017-May-22 01:30N 43°19' E 007°32'714.8
2017-May-22 01:00N 43°12' E 007°37'714.8
2017-May-22 00:30N 43°05' E 007°41'815.0
2017-May-22 00:00N 42°58' E 007°44'815.0
2017-May-21 23:28N 42°51' E 007°48'715.0
2017-May-21 23:00N 42°45' E 007°52'815.2
2017-May-21 22:28N 42°37' E 007°58'915.1
2017-May-21 21:53N 42°29' E 008°03'615.2
2017-May-21 21:28N 42°24' E 008°06'715.3
2017-May-21 21:00N 42°17' E 008°10'815.3
2017-May-21 20:29N 42°10' E 008°15'815.2
2017-May-21 19:56N 42°03' E 008°20'715.3
2017-May-21 19:30N 41°57' E 008°24'815.0
2017-May-21 18:59N 41°50' E 008°29'713.2
2017-May-21 18:29N 41°44' E 008°34'613.3
2017-May-21 18:00N 41°38' E 008°35'714.2
2017-May-21 17:30N 41°31' E 008°37'714.0
2017-May-21 16:59N 41°27' E 008°45'814.7
2017-May-21 16:29N 41°25' E 008°54'714.7
2017-May-21 16:00N 41°23' E 009°03'4 8.6
2017-May-21 15:30N 41°23' E 009°09'0 0.1
2017-May-21 14:50N 41°23' E 009°09'0 0.0
2017-May-21 14:11N 41°23' E 009°09'0 0.0
2017-May-21 12:41N 41°23' E 009°09'0 0.1
2017-May-21 12:26N 41°23' E 009°09'0 0.0
2017-May-21 09:50N 41°23' E 009°09'0 0.0
2017-May-21 09:20N 41°23' E 009°09'0 0.0
2017-May-21 08:59N 41°23' E 009°09'0 0.0
2017-May-21 08:29N 41°23' E 009°09'0 0.0
2017-May-21 07:26N 41°23' E 009°09'0 0.0
2017-May-21 06:53N 41°23' E 009°09'0 0.0
2017-May-21 06:29N 41°23' E 009°09'0 0.1
2017-May-21 05:58N 41°23' E 009°09'25 8.6
2017-May-21 03:02N 41°39' E 009°35'013.3
2017-May-21 03:00N 41°40' E 009°35'713.4
2017-May-21 02:29N 41°46' E 009°38'2213.3
2017-May-21 00:51N 42°08' E 009°43'2913.3
2017-May-20 22:41N 42°36' E 009°44'313.6
2017-May-20 22:30N 42°39' E 009°43'713.5
2017-May-20 22:01N 42°45' E 009°40'713.6
2017-May-20 21:31N 42°52' E 009°38'713.6
2017-May-20 21:00N 42°58' E 009°36'713.4
2017-May-20 20:31N 43°05' E 009°33'612.8
2017-May-20 20:00N 43°07' E 009°25'26 1.4
2017-May-20 02:15N 43°11' E 008°50'2 9.3
2017-May-20 02:00N 43°13' E 008°51'4 8.8
2017-May-20 01:30N 43°17' E 008°53'4 8.8
2017-May-20 01:00N 43°21' E 008°55'4 8.4
2017-May-20 00:30N 43°25' E 008°56'4 8.3
2017-May-20 00:00N 43°29' E 008°58'4 8.4
2017-May-19 23:30N 43°33' E 008°59'4 8.3
2017-May-19 23:00N 43°37' E 008°60'4 8.6
2017-May-19 22:30N 43°42' E 008°59'4 8.8
2017-May-19 22:00N 43°46' E 008°58'5 9.1
2017-May-19 21:30N 43°51' E 008°58'5 9.3
2017-May-19 21:00N 43°55' E 008°58'5 9.5
2017-May-19 20:30N 44°00' E 008°58'4 8.7
2017-May-19 20:00N 44°04' E 009°01'5 9.8
2017-May-19 19:30N 44°08' E 009°05'5 9.8
2017-May-19 19:00N 44°11' E 009°10'5 9.7
2017-May-19 18:30N 44°15' E 009°14'3 6.8
2017-May-19 18:00N 44°18' E 009°14'0 0.2
2017-May-19 17:25N 44°18' E 009°14'0 0.0
2017-May-19 16:58N 44°18' E 009°14'0 0.0
2017-May-19 16:25N 44°18' E 009°14'0 0.1
2017-May-19 15:58N 44°18' E 009°14'0 0.0
2017-May-19 15:28N 44°18' E 009°14'0 0.0
2017-May-19 14:52N 44°18' E 009°14'0 0.0
2017-May-19 13:55N 44°18' E 009°14'0 0.1
2017-May-19 13:22N 44°18' E 009°14'0 0.1
2017-May-19 12:49N 44°18' E 009°14'0 0.1
2017-May-19 12:28N 44°18' E 009°14'0 0.1
2017-May-19 11:58N 44°18' E 009°14'0 0.1
2017-May-19 11:28N 44°18' E 009°14'0 0.0
2017-May-19 10:49N 44°18' E 009°14'0 0.2
2017-May-19 10:28N 44°18' E 009°14'0 0.0
2017-May-19 09:58N 44°18' E 009°14'0 0.1
2017-May-19 09:28N 44°18' E 009°14'0 0.1
2017-May-19 08:43N 44°18' E 009°14'0 0.1
2017-May-19 08:28N 44°18' E 009°14'0 0.0
2017-May-19 07:58N 44°18' E 009°14'0 0.1
2017-May-19 07:22N 44°18' E 009°14'0 0.1
2017-May-19 06:49N 44°18' E 009°14'0 0.0
2017-May-19 06:28N 44°18' E 009°14'0 0.0
2017-May-19 06:00N 44°18' E 009°14'1 2.4
2017-May-19 05:30N 44°18' E 009°15'3 6.1
2017-May-19 05:00N 44°15' E 009°15'5 9.1
2017-May-19 04:30N 44°12' E 009°10'5 9.2
2017-May-19 04:00N 44°08' E 009°05'5 9.2
2017-May-19 03:30N 44°05' E 009°00'4 8.9
2017-May-19 03:00N 44°02' E 008°56'4 7.8
2017-May-19 02:30N 43°60' E 008°51'4 7.8
2017-May-19 02:00N 43°58' E 008°47'4 9.0
2017-May-19 01:30N 43°55' E 008°42'5 9.2
2017-May-19 01:00N 43°52' E 008°37'5 9.2
2017-May-19 00:30N 43°49' E 008°32'5 9.2
2017-May-19 00:00N 43°47' E 008°27'4 8.9
2017-May-18 23:30N 43°44' E 008°22'4 8.7
2017-May-18 23:00N 43°41' E 008°17'5 9.9
2017-May-18 22:29N 43°38' E 008°12'5 9.6
2017-May-18 22:00N 43°35' E 008°07'5 9.7
2017-May-18 21:30N 43°36' E 007°60'5 9.7
2017-May-18 21:00N 43°36' E 007°53'5 9.4
2017-May-18 20:30N 43°37' E 007°47'5 9.6
2017-May-18 20:00N 43°37' E 007°40'5 9.7
2017-May-18 19:30N 43°38' E 007°34'510.3
2017-May-18 19:00N 43°39' E 007°27'510.2
2017-May-18 18:30N 43°40' E 007°20'3 5.3
2017-May-18 18:00N 43°42' E 007°17'0 0.1
2017-May-18 17:30N 43°42' E 007°17'0 0.0
2017-May-18 17:00N 43°42' E 007°17'0 0.0
2017-May-18 16:30N 43°42' E 007°17'0 0.0
2017-May-18 16:00N 43°42' E 007°17'0 0.0
2017-May-18 15:30N 43°42' E 007°17'0 0.0
2017-May-18 15:00N 43°42' E 007°17'0 0.0
2017-May-18 14:30N 43°42' E 007°17'0 0.0
2017-May-18 13:30N 43°42' E 007°17'0 0.0
2017-May-18 13:00N 43°42' E 007°17'0 0.0
2017-May-18 12:30N 43°42' E 007°17'0 0.0
2017-May-18 12:00N 43°42' E 007°17'  

Dump ship's entire track history